Huvudsida
METAR-TAF:

METAR-TAF

Flygplatser :

Foggia, Italien

latitud: 41-32N, longitud: 015-43E, höjd: 57 m

Aktuellt väderrapport

Denna rapport gjordes för 32 minuter sedan, klockan 20:55 UTC
Vind 3 kt från nord/nordväst
Temperatur 23°C
Fuktighet 83%
Tryck 1012 hPa
Sikt 10 km eller mer
Inga moln under 1 500 m eller inga cumulonimbus

METAR: LIBA 192055Z 34003KT CAVOK 23/20 Q1012 RMK FEW FEW220 VIS MIN 9999 WIND THR11 VRB02KT WIND THR29 /////KT BLU

Tid: 23:27 (21:27 UTC)

Väderprognos

Denna rapport gjordes för 1 timme och 27 minuter sedan, klockan 20:00 UTC
Prognos gäller från 19 kl. 21 UTC till 20 kl. 06 UTC
Vind 6 kt från ost
Sikt 10 km eller mer
Få moln på en höjd av 3000 ft
Blir
från 19 kl. 23 UTC till 20 kl. 01 UTC
Vind 3 kt varierande vindriktning
Sikt 10 km eller mer
Inga moln under 1 500 m eller inga cumulonimbus

TAF: LIBA 192000Z 1921/2006 09006KT 9999 FEW030 BECMG 1923/2001 VRB03KT CAVOK

Aktuella väderrapporter och prognoser från 4000 flygplatser (METAR- och TAF-rapporter).

De tillgängliga stationerna syns som gula och röda prickar på kartan.

För musen över prickarna för att se namnen på stationerna.

Klicka sedan för att få väderrapporter och prognoser.

För att ändra kartan: Klicka på de gröna knapparna med ett svart kors på för att zooma in; den gröna knappen med ett streck på för att zooma ut; eller på de gröna pilarna för angränsande kartor.


METAR-TAF: